Hemlock Grove, Ohio
Current Conditions -  °F | °C
As of 8:35 PM on Monday 20 Oct 2014 (Local Time) from KUNI Reporting Station
Thunderstorm Thunderstorm  
Wind Chill: 51°   Ceiling: 3600
Heat Index: 51°   Visibility: 10mi
Dew Point: 48°   Wind: 0mph
Humidity: 92%   Direction: NA
Pressure: 29.9"   Gusts: NA
Location:  39.1049°N, 82.0431°W
Report Text: KUNI 210035Z AUTO 00000KT 10SM TS BKN036 BKN043 BKN050 10/09 A2990 RMK AO2 LTG DSNT N T01030091
Loading
Personal Weather Stations






























Interactive Weather Map
Tropical Storm Tracking
New forecast layout! Learn more

10-Day Weather Forecast

Advertisements
Track Severe Weather on mobile